Time;durP1;ratioP1;P1;durP2;ratioP2;P2;SDS_P1;SDS_P2;PMS_P1;PMS_P2;Temp;Humidity;BMP_temperature;BMP_pressure;BME280_temperature;BME280_humidity;BME280_pressure;Samples;Min_cycle;Max_cycle;Signal;HPM_P1;HPM_P2
2022/04/08 00:02:06;;;;;;;8.68;1.90;;;;;;;9.61;58.89;99748.44;5123807;28;20094;-61
2022/04/08 00:04:35;;;;;;;10.10;2.55;;;;;;;9.62;59.33;99753.56;5119506;28;20059;-61
2022/04/08 00:07:03;;;;;;;8.75;2.05;;;;;;;9.62;58.82;99752.75;5123840;27;20083;-60
2022/04/08 00:09:31;;;;;;;7.68;2.10;;;;;;;9.58;59.39;99756.97;5122063;27;20091;-58
2022/04/08 00:11:58;;;;;;;8.32;2.72;;;;;;;9.58;58.65;99757.78;5116138;28;20047;-59
2022/04/08 00:14:26;;;;;;;10.63;2.13;;;;;;;9.59;58.57;99767.44;5113291;28;20489;-59
2022/04/08 00:16:54;;;;;;;8.15;1.80;;;;;;;9.58;59.29;99770.38;5115295;28;20136;-58
2022/04/08 00:19:21;;;;;;;9.18;1.70;;;;;;;9.58;59.34;99773.06;5116626;28;20158;-59
2022/04/08 00:21:51;;;;;;;4.68;1.88;;;;;;;9.56;58.85;99770.63;5119384;28;20083;-60
2022/04/08 00:24:19;;;;;;;4.43;1.65;;;;;;;9.57;58.46;99782.97;5116676;28;20043;-61
2022/04/08 00:26:47;;;;;;;9.20;1.58;;;;;;;9.55;58.52;99784.28;5124247;28;20067;-60
2022/04/08 00:29:15;;;;;;;9.32;2.53;;;;;;;9.55;58.56;99784.28;5114061;28;20131;-60
2022/04/08 00:31:42;;;;;;;9.93;2.10;;;;;;;9.54;58.58;99790.69;5120394;28;20493;-60
2022/04/08 00:34:10;;;;;;;5.97;1.63;;;;;;;9.52;58.60;99785.56;5116284;28;20420;-60
2022/04/08 00:36:38;;;;;;;10.82;1.83;;;;;;;9.51;58.66;99786.63;5118278;28;20450;-60
2022/04/08 00:39:11;;;;;;;13.20;2.85;;;;;;;9.50;58.43;99779.63;5121917;28;20079;-60
2022/04/08 00:41:39;;;;;;;8.88;2.78;;;;;;;9.48;59.33;99781.72;5123087;28;20044;-60
2022/04/08 00:44:09;;;;;;;10.38;1.98;;;;;;;9.47;59.26;99788.16;5121439;28;20086;-60
2022/04/08 00:46:38;;;;;;;8.35;1.95;;;;;;;9.48;58.95;99795.16;5110498;27;20132;-60
2022/04/08 00:49:06;;;;;;;15.68;2.58;;;;;;;9.43;58.79;99789.69;5113225;28;20048;-60
2022/04/08 00:51:34;;;;;;;13.05;3.47;;;;;;;9.46;58.54;99799.94;5120796;28;20039;-60
2022/04/08 00:54:03;;;;;;;10.55;2.35;;;;;;;9.45;58.50;99811.72;5117387;28;20511;-60
2022/04/08 00:56:32;;;;;;;8.95;2.47;;;;;;;9.43;58.56;99811.13;5122843;28;20336;-58
2022/04/08 00:59:00;;;;;;;12.25;3.03;;;;;;;9.43;58.83;99811.97;5130569;27;20081;-60
2022/04/08 01:01:28;;;;;;;10.07;2.75;;;;;;;9.43;59.38;99814.63;5119712;28;20075;-60
2022/04/08 01:03:57;;;;;;;11.85;2.65;;;;;;;9.36;58.69;99810.47;5119488;28;20051;-60
2022/04/08 01:06:26;;;;;;;9.93;2.50;;;;;;;9.41;58.40;99821.28;5110916;28;20040;-59
2022/04/08 01:08:54;;;;;;;6.97;1.85;;;;;;;9.40;59.00;99820.47;5113773;28;20072;-59
2022/04/08 01:11:22;;;;;;;14.88;3.63;;;;;;;9.39;58.97;99818.84;5112042;28;20052;-58
2022/04/08 01:13:52;;;;;;;9.65;2.20;;;;;;;9.39;58.72;99813.50;5117299;28;20048;-58
2022/04/08 01:16:20;;;;;;;9.60;2.08;;;;;;;9.38;59.20;99830.63;5122194;28;20044;-58
2022/04/08 01:18:48;;;;;;;6.97;2.03;;;;;;;9.38;58.36;99837.88;5120522;28;20052;-59
2022/04/08 01:21:16;;;;;;;11.30;3.10;;;;;;;9.36;59.07;99837.28;5123164;28;20051;-59
2022/04/08 01:23:48;;;;;;;12.90;2.42;;;;;;;9.35;58.60;99841.03;5118389;28;20046;-59
2022/04/08 01:26:17;;;;;;;12.73;2.40;;;;;;;9.30;58.66;99836.38;5122402;28;20052;-59
2022/04/08 01:28:46;;;;;;;9.60;2.25;;;;;;;9.34;58.88;99850.94;5119569;28;20166;-58
2022/04/08 01:31:15;;;;;;;12.35;3.05;;;;;;;9.34;58.53;99850.13;5121695;28;20058;-58
2022/04/08 01:33:43;;;;;;;13.90;2.60;;;;;;;9.33;58.70;99848.47;5119404;28;20399;-60
2022/04/08 01:36:11;;;;;;;12.77;3.10;;;;;;;9.29;58.67;99848.16;5123996;28;20400;-60
2022/04/08 01:38:38;;;;;;;13.32;2.90;;;;;;;9.30;58.70;99854.31;5114756;28;20058;-60
2022/04/08 01:41:06;;;;;;;10.98;3.45;;;;;;;9.31;58.84;99854.09;5115802;28;20080;-59
2022/04/08 01:43:35;;;;;;;9.88;2.22;;;;;;;9.29;59.02;99858.88;5112387;28;20082;-59
2022/04/08 01:46:03;;;;;;;10.73;1.90;;;;;;;9.25;58.97;99854.22;5119022;28;20071;-59
2022/04/08 01:48:31;;;;;;;9.50;2.28;;;;;;;9.28;58.84;99857.25;5118832;28;20075;-60
2022/04/08 01:50:58;;;;;;;6.57;1.95;;;;;;;9.27;58.25;99854.81;5118832;28;20472;-59
2022/04/08 01:53:26;;;;;;;10.55;2.40;;;;;;;9.27;58.34;99854.81;5120802;28;20074;-59
2022/04/08 01:55:54;;;;;;;17.15;2.72;;;;;;;9.27;59.03;99860.16;5113053;28;20083;-59
2022/04/08 01:58:22;;;;;;;11.15;2.55;;;;;;;9.28;59.23;99864.47;5108344;28;20089;-59
2022/04/08 02:00:51;;;;;;;12.45;2.63;;;;;;;9.25;58.40;99868.44;5112564;28;20059;-59
2022/04/08 02:03:20;;;;;;;12.50;2.50;;;;;;;9.26;58.74;99870.06;5119265;28;20047;-59
2022/04/08 02:05:48;;;;;;;11.70;2.50;;;;;;;9.24;58.41;99866.00;5110022;28;20452;-58
2022/04/08 02:08:16;;;;;;;9.98;1.90;;;;;;;9.25;58.23;99878.34;5124161;27;20044;-59
2022/04/08 02:10:43;;;;;;;8.48;2.67;;;;;;;9.23;58.65;99883.94;5116815;28;20101;-60
2022/04/08 02:13:11;;;;;;;14.93;2.67;;;;;;;9.21;59.01;99875.31;5111610;28;20793;-59
2022/04/08 02:15:39;;;;;;;7.72;2.83;;;;;;;9.21;59.14;99872.66;5118139;28;20111;-59
2022/04/08 02:18:08;;;;;;;10.50;2.03;;;;;;;9.20;58.88;99876.38;5120606;28;20083;-60
2022/04/08 02:20:36;;;;;;;8.85;2.42;;;;;;;9.20;58.97;99889.78;5124493;27;20086;-60
2022/04/08 02:23:05;;;;;;;8.60;1.85;;;;;;;9.20;58.56;99886.28;5114210;28;20489;-60
2022/04/08 02:25:33;;;;;;;10.50;2.88;;;;;;;9.16;59.07;99883.25;5121511;28;20048;-60
2022/04/08 02:28:03;;;;;;;9.93;2.05;;;;;;;9.18;58.28;99888.38;5117913;28;20174;-60
2022/04/08 02:30:30;;;;;;;12.45;3.15;;;;;;;9.12;59.08;99885.59;5117353;28;20396;-60
2022/04/08 02:33:01;;;;;;;11.70;2.28;;;;;;;9.16;59.02;99893.97;5118786;28;20067;-59
2022/04/08 02:35:31;;;;;;;12.80;2.63;;;;;;;9.15;58.89;99897.72;5118648;28;20534;-60
2022/04/08 02:37:59;;;;;;;8.38;1.95;;;;;;;9.10;58.62;99886.88;5111767;28;20087;-59
2022/04/08 02:40:26;;;;;;;5.55;1.77;;;;;;;9.13;58.80;99892.59;5120981;28;20051;-59
2022/04/08 02:42:54;;;;;;;13.95;2.17;;;;;;;9.13;59.03;99894.47;5124775;28;20083;-59
2022/04/08 02:45:22;;;;;;;9.10;1.90;;;;;;;9.12;58.52;99899.00;5121259;28;20052;-60
2022/04/08 02:47:49;;;;;;;10.23;2.50;;;;;;;9.11;58.51;99897.38;5120761;28;20074;-60
2022/04/08 02:50:17;;;;;;;14.23;2.20;;;;;;;9.11;58.57;99899.25;5126602;28;20146;-60
2022/04/08 02:52:46;;;;;;;7.80;2.88;;;;;;;9.10;59.27;99902.97;5123472;28;20468;-60
2022/04/08 02:55:14;;;;;;;7.53;2.17;;;;;;;9.08;58.41;99905.88;5117887;28;20054;-59
2022/04/08 02:57:46;;;;;;;13.00;2.20;;;;;;;9.07;58.76;99900.75;5124908;28;20071;-60
2022/04/08 03:00:15;;;;;;;4.60;1.52;;;;;;;9.07;58.48;99898.88;5120121;28;20107;-60
2022/04/08 03:02:43;;;;;;;12.00;2.35;;;;;;;9.06;58.38;99909.84;5118788;28;20450;-59
2022/04/08 03:05:11;;;;;;;6.50;1.90;;;;;;;9.05;58.75;99906.34;5115717;28;20357;-60
2022/04/08 03:07:38;;;;;;;9.95;1.70;;;;;;;9.04;59.07;99901.22;5117918;28;20093;-60
2022/04/08 03:10:10;;;;;;;6.72;2.08;;;;;;;9.03;59.18;99897.72;5111515;28;20051;-59
2022/04/08 03:12:38;;;;;;;6.93;2.13;;;;;;;9.03;59.18;99911.13;5123446;28;20075;-59
2022/04/08 03:15:07;;;;;;;7.55;1.85;;;;;;;9.03;59.20;99908.44;5109744;28;20051;-59
2022/04/08 03:17:36;;;;;;;12.60;2.40;;;;;;;9.03;59.16;99904.97;5114708;28;20043;-59
2022/04/08 03:20:04;;;;;;;6.05;1.77;;;;;;;9.02;59.17;99904.13;5123405;28;20054;-59
2022/04/08 03:22:32;;;;;;;4.85;1.55;;;;;;;9.03;58.66;99904.97;5111522;27;20158;-59
2022/04/08 03:25:00;;;;;;;8.25;2.53;;;;;;;9.03;59.11;99910.31;5120243;28;20044;-60
2022/04/08 03:27:29;;;;;;;11.85;1.55;;;;;;;9.02;58.64;99914.03;5112910;28;20079;-60
2022/04/08 03:29:57;;;;;;;8.43;1.77;;;;;;;9.02;59.57;99922.91;5118543;28;20052;-59
2022/04/08 03:32:24;;;;;;;6.05;1.73;;;;;;;9.01;59.25;99917.78;5118846;28;20071;-60
2022/04/08 03:34:57;;;;;;;6.68;2.03;;;;;;;8.99;59.45;99918.00;5111509;28;20178;-59
2022/04/08 03:37:26;;;;;;;7.68;2.25;;;;;;;8.99;58.98;99928.72;5113812;28;20067;-60
2022/04/08 03:39:54;;;;;;;4.90;1.58;;;;;;;8.97;58.53;99928.16;5109288;28;20094;-60
2022/04/08 03:42:22;;;;;;;7.97;2.28;;;;;;;8.98;58.89;99928.97;5127804;27;20043;-59
2022/04/08 03:44:51;;;;;;;6.38;1.73;;;;;;;8.97;58.67;99930.81;5115214;28;20082;-60
2022/04/08 03:47:20;;;;;;;5.90;2.05;;;;;;;8.92;58.65;99917.31;5112632;28;20044;-60
2022/04/08 03:49:48;;;;;;;8.15;2.80;;;;;;;8.94;58.72;99920.56;5116832;28;20473;-60
2022/04/08 03:52:16;;;;;;;6.80;2.08;;;;;;;8.92;59.00;99928.03;5118997;28;20101;-60
2022/04/08 03:54:44;;;;;;;7.47;1.77;;;;;;;8.91;58.94;99937.13;5111468;27;20500;-60
2022/04/08 03:57:11;;;;;;;6.07;1.77;;;;;;;8.90;58.63;99930.13;5114627;28;20063;-60
2022/04/08 03:59:41;;;;;;;4.63;2.45;;;;;;;8.91;59.03;99936.31;5119839;28;20043;-60
2022/04/08 04:02:10;;;;;;;7.20;2.00;;;;;;;8.89;59.19;99941.91;5115502;28;20449;-60
2022/04/08 04:04:38;;;;;;;6.55;1.75;;;;;;;8.89;59.29;99943.75;5122882;28;20062;-60
2022/04/08 04:07:06;;;;;;;6.32;1.70;;;;;;;8.87;58.69;99944.00;5117814;28;20068;-59
2022/04/08 04:09:34;;;;;;;5.97;2.20;;;;;;;8.86;58.47;99939.69;5106975;28;20474;-59
2022/04/08 04:12:01;;;;;;;5.75;1.70;;;;;;;8.86;58.76;99936.19;5124305;28;20070;-59
2022/04/08 04:14:29;;;;;;;8.35;2.03;;;;;;;8.84;59.21;99936.41;5112572;28;20071;-59
2022/04/08 04:16:57;;;;;;;8.23;2.17;;;;;;;8.81;58.95;99940.38;5121737;28;20086;-59
2022/04/08 04:19:26;;;;;;;4.70;1.85;;;;;;;8.84;59.37;99925.69;5119858;27;20054;-60
2022/04/08 04:21:54;;;;;;;7.57;2.25;;;;;;;8.82;58.71;99930.47;5115305;27;20135;-60
2022/04/08 04:24:21;;;;;;;7.43;3.03;;;;;;;8.81;59.26;99926.97;5115188;28;20047;-59
2022/04/08 04:26:49;;;;;;;8.40;2.15;;;;;;;8.80;58.81;99924.53;5121541;28;20071;-59
2022/04/08 04:29:18;;;;;;;4.60;2.22;;;;;;;8.78;59.34;99916.72;5109168;28;20067;-60
2022/04/08 04:31:46;;;;;;;13.45;3.47;;;;;;;8.78;59.20;99924.78;5118762;28;20054;-60
2022/04/08 04:34:15;;;;;;;8.50;2.70;;;;;;;8.78;58.95;99932.00;5117875;28;20048;-60
2022/04/08 04:36:44;;;;;;;7.63;2.70;;;;;;;8.77;59.02;99930.34;5117663;28;20127;-59
2022/04/08 04:39:12;;;;;;;8.20;2.40;;;;;;;8.74;59.71;99930.81;5124237;27;20035;-60
2022/04/08 04:41:39;;;;;;;6.75;3.42;;;;;;;8.75;59.11;99932.44;5109443;28;20051;-59
2022/04/08 04:44:07;;;;;;;7.53;2.47;;;;;;;8.74;59.51;99936.19;5121476;28;20055;-59
2022/04/08 04:46:35;;;;;;;7.95;2.80;;;;;;;8.73;59.60;99938.03;5104683;28;20087;-60
2022/04/08 04:49:03;;;;;;;5.03;2.78;;;;;;;8.72;59.05;99933.75;5110807;28;20048;-59
2022/04/08 04:51:31;;;;;;;6.50;2.65;;;;;;;8.73;59.53;99931.88;5106902;28;20456;-59
2022/04/08 04:54:00;;;;;;;7.80;3.42;;;;;;;8.72;59.94;99930.25;5118456;28;20215;-59
2022/04/08 04:56:28;;;;;;;10.73;3.60;;;;;;;8.72;59.40;99939.09;5115235;28;20178;-59
2022/04/08 04:58:55;;;;;;;8.23;3.30;;;;;;;8.71;59.05;99934.78;5116527;28;20079;-58
2022/04/08 05:01:23;;;;;;;9.13;2.80;;;;;;;8.59;59.16;99925.13;5114480;28;20086;-59
2022/04/08 05:03:51;;;;;;;6.57;3.10;;;;;;;8.77;59.47;99935.72;5116126;28;20048;-59
2022/04/08 05:06:19;;;;;;;8.43;3.10;;;;;;;8.85;58.46;99935.38;5108972;28;20497;-62
2022/04/08 05:08:52;;;;;;;5.55;2.78;;;;;;;8.88;58.78;99932.22;5114358;28;20050;-60
2022/04/08 05:11:21;;;;;;;7.28;3.22;;;;;;;8.89;58.89;99931.19;5121926;28;20051;-59
2022/04/08 05:13:49;;;;;;;7.10;3.15;;;;;;;8.89;58.22;99927.69;5121034;28;20063;-60
2022/04/08 05:16:16;;;;;;;7.28;3.28;;;;;;;8.88;59.24;99937.59;5116977;28;20047;-58
2022/04/08 05:18:45;;;;;;;6.88;3.10;;;;;;;8.87;58.77;99935.94;5118989;28;20043;-59
2022/04/08 05:21:13;;;;;;;9.75;3.20;;;;;;;8.87;58.51;99941.31;5113316;28;20101;-59
2022/04/08 05:23:40;;;;;;;8.35;3.65;;;;;;;8.92;58.78;99936.06;5111753;28;20051;-61
2022/04/08 05:26:08;;;;;;;8.82;2.83;;;;;;;9.03;58.16;99939.81;5110397;28;20096;-59
2022/04/08 05:28:37;;;;;;;7.75;3.47;;;;;;;9.11;57.51;99928.72;5107260;28;20090;-60
2022/04/08 05:31:05;;;;;;;7.20;3.15;;;;;;;9.18;57.24;99934.78;5120333;28;20047;-59
2022/04/08 05:33:33;;;;;;;6.60;3.10;;;;;;;9.27;57.89;99929.88;5110851;28;20053;-58
2022/04/08 05:36:00;;;;;;;6.22;3.10;;;;;;;9.37;57.52;99933.59;5121705;28;20381;-59
2022/04/08 05:38:29;;;;;;;8.20;4.07;;;;;;;9.46;56.69;99923.31;5119794;28;20039;-59
2022/04/08 05:40:56;;;;;;;6.13;3.22;;;;;;;9.60;56.29;99921.16;5110069;28;20079;-59
2022/04/08 05:43:24;;;;;;;8.55;3.42;;;;;;;9.71;55.97;99914.94;5110418;28;20047;-58
2022/04/08 05:45:53;;;;;;;6.40;3.20;;;;;;;9.84;56.06;99916.53;5116602;28;20082;-59
2022/04/08 05:48:21;;;;;;;8.98;3.30;;;;;;;9.93;55.55;99915.09;5112924;28;20380;-61
2022/04/08 05:50:49;;;;;;;4.95;2.95;;;;;;;10.01;55.09;99910.16;5112162;28;20060;-59
2022/04/08 05:53:16;;;;;;;5.53;2.70;;;;;;;9.99;55.11;99903.41;5122895;28;20071;-57
2022/04/08 05:56:03;;;;;;;10.32;3.72;;;;;;;9.87;55.26;99913.38;5112990;28;20142;-59
2022/04/08 05:58:32;;;;;;;6.07;3.42;;;;;;;9.73;55.68;99904.78;4756544;28;9999748;-62
2022/04/08 06:01:02;;;;;;;7.93;3.00;;;;;;;9.61;56.27;99909.38;5098633;28;20044;-62
2022/04/08 06:03:30;;;;;;;4.63;3.33;;;;;;;9.51;56.72;99904.63;5110692;28;20051;-60
2022/04/08 06:05:58;;;;;;;5.88;2.85;;;;;;;9.44;57.03;99903.94;5104365;28;20126;-63
2022/04/08 06:08:25;;;;;;;5.78;2.53;;;;;;;9.36;57.17;99907.81;5109835;28;20054;-62
2022/04/08 06:10:53;;;;;;;9.45;3.78;;;;;;;9.33;56.97;99900.25;5119506;28;20075;-59
2022/04/08 06:13:24;;;;;;;6.68;2.90;;;;;;;9.29;57.56;99907.13;5116523;28;20472;-61
2022/04/08 06:15:53;;;;;;;6.32;2.90;;;;;;;9.26;57.57;99904.91;5119164;28;20048;-61
2022/04/08 06:18:22;;;;;;;5.32;2.90;;;;;;;9.24;57.24;99903.53;5116412;28;20047;-61
2022/04/08 06:20:50;;;;;;;7.88;3.20;;;;;;;9.24;57.91;99909.72;5125095;28;20055;-61
2022/04/08 06:23:18;;;;;;;6.18;2.70;;;;;;;9.23;57.62;99909.94;5127555;27;20468;-60
2022/04/08 06:25:45;;;;;;;7.78;3.05;;;;;;;9.21;58.04;99906.69;5124443;27;20055;-60
2022/04/08 06:28:13;;;;;;;9.82;2.67;;;;;;;9.19;58.39;99906.91;5123990;28;20062;-61
2022/04/08 06:30:41;;;;;;;7.38;2.65;;;;;;;9.19;58.24;99912.28;5125510;28;20115;-60
2022/04/08 06:33:09;;;;;;;8.02;4.00;;;;;;;9.19;58.32;99914.97;5123493;28;20082;-60
2022/04/08 06:35:38;;;;;;;11.02;3.13;;;;;;;9.18;57.70;99907.16;5119324;28;20044;-60
2022/04/08 06:38:08;;;;;;;10.95;3.28;;;;;;;9.18;58.09;99910.66;5124743;28;20145;-60
2022/04/08 06:40:38;;;;;;;6.82;3.03;;;;;;;9.17;57.97;99900.97;5113128;28;20047;-60
2022/04/08 06:43:06;;;;;;;5.88;2.67;;;;;;;9.17;58.15;99905.53;5112730;28;20618;-60
2022/04/08 06:45:35;;;;;;;7.75;2.78;;;;;;;9.11;58.18;99883.97;5122956;28;20852;-60
2022/04/08 06:48:03;;;;;;;4.15;2.35;;;;;;;9.14;58.53;99902.25;5117560;28;20473;-60
2022/04/08 06:50:30;;;;;;;6.10;3.00;;;;;;;9.13;58.42;99897.13;5114745;28;20113;-60
2022/04/08 06:53:00;;;;;;;6.68;2.75;;;;;;;9.13;58.63;99899.81;5121968;28;20050;-60
2022/04/08 06:55:29;;;;;;;7.68;3.10;;;;;;;9.11;58.91;99896.56;5118767;28;20075;-59
2022/04/08 06:57:59;;;;;;;5.57;2.65;;;;;;;9.11;58.92;99892.00;5125859;28;20246;-59
2022/04/08 07:00:27;;;;;;;5.15;2.55;;;;;;;9.11;59.43;99888.50;5122579;28;20083;-59
2022/04/08 07:02:54;;;;;;;6.03;2.72;;;;;;;9.10;59.28;99887.69;5126343;28;20051;-60
2022/04/08 07:05:25;;;;;;;6.90;3.30;;;;;;;9.08;58.42;99884.44;5125054;28;20070;-60
2022/04/08 07:07:53;;;;;;;5.63;2.60;;;;;;;9.09;58.62;99896.78;5126883;27;20043;-61
2022/04/08 07:10:22;;;;;;;6.75;2.65;;;;;;;9.08;58.82;99900.53;5116340;27;20178;-62
2022/04/08 07:12:50;;;;;;;3.63;2.55;;;;;;;9.07;59.26;99898.88;5102244;28;20086;-61
2022/04/08 07:15:18;;;;;;;7.05;2.92;;;;;;;9.07;59.66;99892.72;5118835;28;20134;-60
2022/04/08 07:17:46;;;;;;;3.83;2.58;;;;;;;9.06;58.99;99891.91;5117341;28;20043;-60
2022/04/08 07:20:17;;;;;;;6.07;3.03;;;;;;;9.09;58.62;99890.63;5120078;28;20103;-60
2022/04/08 07:22:46;;;;;;;5.18;2.53;;;;;;;9.25;58.48;99887.22;5114360;28;20073;-60
2022/04/08 07:25:14;;;;;;;6.38;3.22;;;;;;;9.41;57.67;99882.97;5114961;28;20303;-60
2022/04/08 07:27:45;;;;;;;6.20;2.58;;;;;;;9.55;57.06;99880.84;5100901;28;20075;-61
2022/04/08 07:30:13;;;;;;;9.13;3.22;;;;;;;9.67;57.03;99881.59;5120452;27;20048;-59
2022/04/08 07:32:42;;;;;;;5.65;2.55;;;;;;;9.81;56.54;99884.81;5119719;27;20101;-60
2022/04/08 07:35:11;;;;;;;6.68;2.50;;;;;;;9.93;56.35;99883.69;5108410;27;20058;-60
2022/04/08 07:37:39;;;;;;;5.70;2.38;;;;;;;9.90;56.51;99886.06;5114340;28;20069;-60
2022/04/08 07:40:08;;;;;;;10.02;2.80;;;;;;;9.86;55.97;99879.53;5114869;27;20046;-59
2022/04/08 07:42:37;;;;;;;7.25;2.55;;;;;;;9.77;56.34;99879.09;5123476;27;20047;-59
2022/04/08 07:45:07;;;;;;;9.32;2.45;;;;;;;9.71;56.59;99880.88;5114269;28;20044;-60
2022/04/08 07:47:35;;;;;;;11.52;2.45;;;;;;;9.63;57.09;99877.78;5116259;28;20082;-60
2022/04/08 07:50:05;;;;;;;4.13;2.35;;;;;;;9.53;57.45;99873.03;5117125;27;20047;-61
2022/04/08 07:52:33;;;;;;;9.20;2.63;;;;;;;9.52;57.71;99870.56;5111307;28;20087;-60
2022/04/08 07:55:01;;;;;;;6.07;3.17;;;;;;;9.50;58.15;99867.31;5113637;28;20149;-59
2022/04/08 07:57:29;;;;;;;6.85;2.90;;;;;;;9.45;58.31;99866.16;5115686;28;20056;-61
2022/04/08 07:59:58;;;;;;;5.85;2.40;;;;;;;9.44;58.14;99861.03;5112286;28;20430;-60
2022/04/08 08:02:29;;;;;;;9.20;2.45;;;;;;;9.40;58.50;99863.38;5118249;28;20054;-60
2022/04/08 08:04:57;;;;;;;5.72;2.60;;;;;;;9.39;58.43;99863.63;5117465;28;20066;-60
2022/04/08 08:07:25;;;;;;;6.47;2.10;;;;;;;9.35;58.52;99863.28;5106123;28;20157;-59
2022/04/08 08:09:53;;;;;;;8.32;3.80;;;;;;;9.32;58.07;99855.72;5102747;28;20139;-60
2022/04/08 08:12:23;;;;;;;5.40;2.00;;;;;;;9.32;58.12;99862.94;5109761;28;20048;-60
2022/04/08 08:14:52;;;;;;;5.38;2.70;;;;;;;9.28;58.45;99857.25;5124300;27;20090;-61
2022/04/08 08:17:21;;;;;;;6.18;3.78;;;;;;;9.25;58.46;99856.91;5113043;28;20060;-61
2022/04/08 08:19:50;;;;;;;6.45;3.03;;;;;;;9.27;59.10;99860.16;5108029;28;20505;-61
2022/04/08 08:22:23;;;;;;;5.82;2.67;;;;;;;9.25;59.24;99865.75;5113575;27;20089;-60
2022/04/08 08:24:51;;;;;;;5.30;2.72;;;;;;;9.27;58.81;99860.16;5107966;28;20058;-61
2022/04/08 08:27:19;;;;;;;5.95;2.47;;;;;;;9.23;59.27;99851.78;5107646;28;20043;-61
2022/04/08 08:29:47;;;;;;;5.10;2.30;;;;;;;9.23;58.73;99853.66;5110517;28;20079;-60
2022/04/08 08:32:15;;;;;;;6.60;3.20;;;;;;;9.21;59.32;99845.03;5110222;28;20070;-61
2022/04/08 08:34:42;;;;;;;8.05;2.53;;;;;;;9.20;59.12;99846.06;5110467;28;20056;-60
2022/04/08 08:37:12;;;;;;;5.15;2.30;;;;;;;9.20;58.71;99838.84;5099267;28;20179;-61
2022/04/08 08:39:39;;;;;;;5.82;2.28;;;;;;;9.17;59.20;99825.91;5115938;28;20075;-61
2022/04/08 08:42:09;;;;;;;8.23;2.60;;;;;;;9.17;58.95;99831.28;5110693;28;20047;-61
2022/04/08 08:44:36;;;;;;;6.22;2.20;;;;;;;9.18;59.42;99818.69;5108119;27;20051;-61
2022/04/08 08:47:07;;;;;;;4.80;2.70;;;;;;;9.18;59.33;99813.34;5106295;28;20131;-61
2022/04/08 08:49:36;;;;;;;4.68;2.10;;;;;;;9.17;59.42;99809.84;5109803;28;20048;-61
2022/04/08 08:52:06;;;;;;;6.32;2.40;;;;;;;9.18;58.73;99806.09;5119551;28;20369;-61
2022/04/08 08:54:36;;;;;;;12.60;3.55;;;;;;;9.16;59.24;99800.16;5106400;28;20163;-61
2022/04/08 08:57:04;;;;;;;4.28;2.05;;;;;;;9.16;58.46;99805.53;5119452;28;20155;-61
2022/04/08 08:59:32;;;;;;;5.60;2.67;;;;;;;9.14;58.83;99797.72;5107681;28;20040;-61
2022/04/08 09:02:04;;;;;;;7.80;2.42;;;;;;;9.17;58.88;99793.75;5113588;28;20086;-60
2022/04/08 09:04:32;;;;;;;6.78;2.30;;;;;;;9.18;58.52;99791.88;5122131;27;20115;-61
2022/04/08 09:06:59;;;;;;;7.03;2.50;;;;;;;9.18;58.61;99794.56;5102964;28;20070;-60
2022/04/08 09:09:31;;;;;;;8.10;2.40;;;;;;;9.19;58.34;99796.19;5115325;28;20477;-60
2022/04/08 09:12:11;;;;;;;7.82;2.83;;;;;;;9.19;58.41;99786.28;5114089;28;20334;-60
2022/04/08 09:14:40;;;;;;;7.40;2.40;;;;;;;9.19;58.32;99788.97;5120555;28;20115;-60
2022/04/08 09:17:08;;;;;;;4.63;2.40;;;;;;;9.20;58.97;99793.28;5119224;28;20049;-60
2022/04/08 09:19:36;;;;;;;5.35;1.90;;;;;;;9.22;58.49;99793.84;5116913;28;20075;-60
2022/04/08 09:22:04;;;;;;;3.80;1.50;;;;;;;9.24;59.10;99796.28;5123390;28;20076;-60
2022/04/08 09:24:32;;;;;;;4.22;1.95;;;;;;;9.23;58.89;99792.78;5119133;28;20059;-61
2022/04/08 09:27:00;;;;;;;5.55;2.13;;;;;;;9.25;58.82;99792.56;5122198;28;20079;-60
2022/04/08 09:29:29;;;;;;;5.18;1.70;;;;;;;9.23;59.10;99792.78;5122559;28;20051;-61
2022/04/08 09:32:16;;;;;;;6.13;2.45;;;;;;;9.25;59.08;99793.38;5113153;28;20051;-60
2022/04/08 09:34:44;;;;;;;3.85;2.13;;;;;;;9.27;58.96;99790.47;5113984;28;20067;-61
2022/04/08 09:37:15;;;;;;;7.43;2.13;;;;;;;9.26;58.27;99791.50;5121595;28;20086;-61
2022/04/08 09:39:54;;;;;;;7.63;2.83;;;;;;;9.25;59.09;99784.50;5109544;28;20055;-61
2022/04/08 09:42:22;;;;;;;5.97;1.80;;;;;;;9.28;58.67;99795.56;5107523;28;20047;-60
2022/04/08 09:44:52;;;;;;;6.00;1.75;;;;;;;9.28;58.98;99792.09;5123099;28;20063;-60
2022/04/08 09:47:19;;;;;;;6.55;2.22;;;;;;;9.28;58.80;99787.53;5111972;28;20044;-61
2022/04/08 09:49:47;;;;;;;9.30;2.72;;;;;;;9.32;58.58;99791.38;5116098;28;20059;-61
2022/04/08 09:52:17;;;;;;;4.30;1.52;;;;;;;9.35;59.16;99800.81;5122770;28;20047;-61
2022/04/08 09:54:45;;;;;;;3.38;1.52;;;;;;;9.41;58.42;99802.53;5117871;28;20086;-60
2022/04/08 09:57:18;;;;;;;7.18;2.30;;;;;;;9.54;57.65;99796.06;5116133;27;20075;-61
2022/04/08 09:59:48;;;;;;;5.43;1.98;;;;;;;9.69;57.62;99790.97;5117934;27;20090;-61
2022/04/08 10:02:25;;;;;;;4.82;1.67;;;;;;;9.86;57.17;99796.34;5127613;28;20081;-61
2022/04/08 10:05:07;;;;;;;6.13;2.45;;;;;;;10.03;56.30;99791.81;5125106;28;20557;-61
2022/04/08 10:07:36;;;;;;;3.80;1.92;;;;;;;10.20;56.12;99792.66;5117588;27;20047;-61
2022/04/08 10:10:17;;;;;;;3.83;1.70;;;;;;;10.41;55.08;99791.03;5113423;28;20056;-61
2022/04/08 10:13:01;;;;;;;5.82;2.47;;;;;;;10.47;55.36;99790.06;5114945;28;20048;-61
2022/04/08 10:15:35;;;;;;;5.22;2.03;;;;;;;10.41;55.11;99786.50;5126993;28;20161;-61
2022/04/08 10:18:06;;;;;;;5.13;1.50;;;;;;;10.30;55.24;99773.19;5108994;27;20043;-61
2022/04/08 10:20:37;;;;;;;3.83;1.50;;;;;;;10.26;56.01;99780.91;5109534;28;20048;-61
2022/04/08 10:23:08;;;;;;;5.85;1.98;;;;;;;10.15;56.30;99787.16;5106133;28;20219;-61
2022/04/08 10:25:38;;;;;;;8.73;1.95;;;;;;;10.08;56.23;99779.28;5105789;28;20075;-61
2022/04/08 10:28:08;;;;;;;5.75;2.03;;;;;;;10.05;56.55;99778.94;5112313;28;20047;-61
2022/04/08 10:30:43;;;;;;;5.07;1.55;;;;;;;10.01;56.91;99775.94;5120251;28;20047;-60
2022/04/08 10:33:13;;;;;;;8.23;2.42;;;;;;;9.98;56.62;99778.31;5126752;28;20665;-60
2022/04/08 10:35:53;;;;;;;6.43;1.70;;;;;;;9.95;57.17;99773.41;5124180;28;20059;-60
2022/04/08 10:38:21;;;;;;;3.38;1.70;;;;;;;9.91;57.26;99766.91;5116644;28;20051;-60
2022/04/08 10:40:55;;;;;;;8.38;2.92;;;;;;;9.85;57.10;99763.34;5131921;27;20109;-60
2022/04/08 10:43:25;;;;;;;5.40;1.80;;;;;;;9.87;57.31;99771.13;5117141;28;20066;-60
2022/04/08 10:45:56;;;;;;;4.40;1.15;;;;;;;9.85;57.54;99766.00;5114068;28;20047;-60
2022/04/08 10:48:31;;;;;;;13.23;2.92;;;;;;;9.84;57.32;99763.56;5124155;28;20052;-60
2022/04/08 10:51:04;;;;;;;10.02;2.63;;;;;;;9.82;57.02;99768.38;5125229;28;20082;-60
2022/04/08 10:53:34;;;;;;;3.70;1.90;;;;;;;9.79;56.97;99758.94;5115158;28;20056;-60
2022/04/08 10:56:10;;;;;;;5.35;2.38;;;;;;;9.77;57.10;99761.88;5124655;28;20051;-60
2022/04/08 10:58:43;;;;;;;6.97;1.95;;;;;;;9.76;57.40;99762.91;5124090;28;20051;-60
2022/04/08 11:01:16;;;;;;;4.60;2.30;;;;;;;9.76;57.11;99759.44;5124906;28;20052;-61
2022/04/08 11:03:54;;;;;;;4.57;2.10;;;;;;;9.74;57.04;99756.16;5129636;27;20059;-60
2022/04/08 11:06:24;;;;;;;6.03;1.60;;;;;;;9.73;57.81;99755.34;5105071;28;20481;-60
2022/04/08 11:08:52;;;;;;;3.55;1.30;;;;;;;9.74;57.06;99748.94;5106965;28;20097;-59
2022/04/08 11:11:28;;;;;;;4.88;1.60;;;;;;;9.73;56.85;99747.31;5114163;28;20040;-60
2022/04/08 11:13:57;;;;;;;7.77;1.90;;;;;;;9.72;56.82;99748.38;5118159;27;20051;-60
2022/04/08 11:16:29;;;;;;;6.20;1.67;;;;;;;9.70;57.03;99741.63;5105119;28;20143;-61
2022/04/08 11:18:59;;;;;;;6.00;2.13;;;;;;;9.68;56.67;99735.69;5118021;28;20079;-60
2022/04/08 11:21:29;;;;;;;5.18;1.88;;;;;;;9.65;55.52;99733.47;5107579;28;20076;-60
2022/04/08 11:23:58;;;;;;;2.47;1.30;;;;;;;9.66;56.49;99740.47;5118365;28;20032;-60
2022/04/08 11:26:28;;;;;;;5.70;1.85;;;;;;;9.64;56.00;99724.63;5117337;28;20535;-60
2022/04/08 11:28:56;;;;;;;7.45;1.67;;;;;;;9.62;55.42;99724.03;5123095;28;20472;-60
2022/04/08 11:31:35;;;;;;;10.07;2.10;;;;;;;9.63;55.78;99724.88;5121074;28;20082;-60
2022/04/08 11:34:05;;;;;;;6.53;1.60;;;;;;;9.63;56.21;99719.50;5115871;28;20040;-61
2022/04/08 11:36:33;;;;;;;3.92;1.30;;;;;;;9.63;55.76;99712.25;4752006;28;10000329;-60
2022/04/08 11:39:00;;;;;;;6.13;1.77;;;;;;;9.65;55.68;99698.59;5114048;28;20125;-60
2022/04/08 11:41:35;;;;;;;8.32;1.80;;;;;;;9.66;56.42;99689.50;5100501;28;20052;-60
2022/04/08 11:44:03;;;;;;;6.45;2.30;;;;;;;9.65;55.51;99694.06;5119852;28;20058;-60
2022/04/08 11:46:32;;;;;;;7.50;2.28;;;;;;;9.64;55.75;99692.44;5121178;28;20055;-60
2022/04/08 11:48:59;;;;;;;7.30;1.52;;;;;;;9.65;55.92;99685.19;5121089;28;20048;-59